Honorio Serpa, Brazil
Current Conditions -  °F | °C
As of 12:00 PM on Saturday 22 Nov 2014 (Local Time) from SBCH Reporting Station
Overcast Overcast  
Wind Chill: 68°   Ceiling: 700
Heat Index: 68°   Visibility: 4mi
Dew Point: 66°   Wind: 9mph
Humidity: 94%   Direction: 270°W
Pressure: 29.97"   Gusts: NA
Location:  26.14°S, 52.39°W
Report Text: SBCH 221400Z 27008KT 7000 BKN007 OVC013 20/19 Q1015
Loading
Personal Weather Stations






























Interactive Weather Map New forecast layout! Learn more

10-Day Weather Forecast

Advertisements
Track Severe Weather on mobile